Time;durP1;ratioP1;P1;durP2;ratioP2;P2;SDS_P1;SDS_P2;PMS_P1;PMS_P2;Temp;Humidity;BMP_temperature;BMP_pressure;BME280_temperature;BME280_humidity;BME280_pressure;Samples;Min_cycle;Max_cycle;Signal;HPM_P1;HPM_P2
2022/10/05 00:00:25;;;;;;;4.83;4.10;;;;;;;;;;5028916;28;20843;-61
2022/10/05 00:02:53;;;;;;;4.93;3.87;;;;;;;;;;5029231;28;20224;-62
2022/10/05 00:05:22;;;;;;;4.67;3.10;;;;;;;;;;5022308;28;20207;-62
2022/10/05 00:07:49;;;;;;;4.30;2.83;;;;;;;;;;5029923;28;20215;-61
2022/10/05 00:10:18;;;;;;;2.50;2.37;;;;;;;;;;5024987;28;20208;-62
2022/10/05 00:12:45;;;;;;;2.23;2.10;;;;;;;;;;5029264;28;20684;-61
2022/10/05 00:15:13;;;;;;;4.27;2.43;;;;;;;;;;5029315;28;20232;-61
2022/10/05 00:17:42;;;;;;;3.20;2.90;;;;;;;;;;5029157;28;20204;-61
2022/10/05 00:20:16;;;;;;;3.10;2.90;;;;;;;;;;5029282;28;20232;-61
2022/10/05 00:22:43;;;;;;;2.43;2.33;;;;;;;;;;5029071;28;20212;-61
2022/10/05 00:25:12;;;;;;;3.63;2.87;;;;;;;;;;5028875;28;20204;-61
2022/10/05 00:27:39;;;;;;;5.27;2.60;;;;;;;;;;5027568;28;20726;-61
2022/10/05 00:30:12;;;;;;;5.10;3.00;;;;;;;;;;5028566;28;20211;-61
2022/10/05 00:32:39;;;;;;;2.87;2.57;;;;;;;;;;5029157;28;20215;-61
2022/10/05 00:35:08;;;;;;;2.30;2.10;;;;;;;;;;5029096;28;20243;-61
2022/10/05 00:37:35;;;;;;;3.77;2.50;;;;;;;;;;5029590;28;20240;-61
2022/10/05 00:40:03;;;;;;;4.10;2.20;;;;;;;;;;5029365;28;20204;-61
2022/10/05 00:42:35;;;;;;;2.97;2.03;;;;;;;;;;5028464;28;20582;-62
2022/10/05 00:45:05;;;;;;;2.70;2.47;;;;;;;;;;5029908;28;20600;-61
2022/10/05 00:47:37;;;;;;;8.40;2.60;;;;;;;;;;5027266;28;20213;-61
2022/10/05 00:50:20;;;;;;;5.13;2.43;;;;;;;;;;5028225;28;20841;-61
2022/10/05 00:52:51;;;;;;;3.53;2.10;;;;;;;;;;5028220;28;20209;-61
2022/10/05 00:55:23;;;;;;;2.87;2.53;;;;;;;;;;5028548;28;20251;-61
2022/10/05 00:57:56;;;;;;;3.10;2.63;;;;;;;;;;5029244;28;20208;-61
2022/10/05 01:00:25;;;;;;;3.53;2.50;;;;;;;;;;5028110;28;20204;-61
2022/10/05 01:02:55;;;;;;;2.93;2.70;;;;;;;;;;5027981;28;20316;-61
2022/10/05 01:05:31;;;;;;;4.17;2.50;;;;;;;;;;5029364;28;20207;-61
2022/10/05 01:08:02;;;;;;;2.97;2.77;;;;;;;;;;5029227;28;20274;-61
2022/10/05 01:10:33;;;;;;;3.60;2.87;;;;;;;;;;5023248;28;20250;-62
2022/10/05 01:13:03;;;;;;;2.63;2.27;;;;;;;;;;5018022;28;20204;-61
2022/10/05 01:15:33;;;;;;;3.17;2.43;;;;;;;;;;5027786;28;20974;-61
2022/10/05 01:18:03;;;;;;;3.33;2.43;;;;;;;;;;5029060;28;20671;-61
2022/10/05 01:20:34;;;;;;;4.23;3.00;;;;;;;;;;5025926;28;20211;-61
2022/10/05 01:23:09;;;;;;;4.37;3.27;;;;;;;;;;5026564;28;20936;-61
2022/10/05 01:25:41;;;;;;;3.60;2.57;;;;;;;;;;5027134;28;20203;-62
2022/10/05 01:28:12;;;;;;;6.67;2.60;;;;;;;;;;5026822;28;20207;-61
2022/10/05 01:30:43;;;;;;;4.33;2.53;;;;;;;;;;5028321;28;20211;-62
2022/10/05 01:33:16;;;;;;;3.07;2.73;;;;;;;;;;5027061;28;20219;-61
2022/10/05 01:35:47;;;;;;;3.30;3.00;;;;;;;;;;5027914;28;20737;-61
2022/10/05 01:38:20;;;;;;;2.73;2.43;;;;;;;;;;5026666;28;20215;-62
2022/10/05 01:40:52;;;;;;;3.60;2.60;;;;;;;;;;5027113;28;20301;-62
2022/10/05 01:43:24;;;;;;;2.27;2.17;;;;;;;;;;5027171;28;20213;-61
2022/10/05 01:45:58;;;;;;;2.53;2.40;;;;;;;;;;5027426;28;20228;-62
2022/10/05 01:48:31;;;;;;;2.53;2.33;;;;;;;;;;5027307;28;20212;-62
2022/10/05 01:51:02;;;;;;;2.70;2.50;;;;;;;;;;5027082;28;20761;-61
2022/10/05 01:53:37;;;;;;;2.40;2.30;;;;;;;;;;5025822;28;20675;-61
2022/10/05 01:56:09;;;;;;;1.93;1.73;;;;;;;;;;5026315;28;20228;-61
2022/10/05 01:58:41;;;;;;;2.47;2.27;;;;;;;;;;5026786;28;20216;-61
2022/10/05 02:01:11;;;;;;;2.13;2.03;;;;;;;;;;5026164;28;20216;-61
2022/10/05 02:03:40;;;;;;;2.43;2.17;;;;;;;;;;5026234;28;20231;-60
2022/10/05 02:06:10;;;;;;;6.40;2.60;;;;;;;;;;5027028;28;20201;-60
2022/10/05 02:08:40;;;;;;;2.43;2.13;;;;;;;;;;5026465;28;20604;-60
2022/10/05 02:11:08;;;;;;;2.23;2.07;;;;;;;;;;5026500;28;20282;-59
2022/10/05 02:13:40;;;;;;;1.90;1.80;;;;;;;;;;5026239;28;20675;-60
2022/10/05 02:16:09;;;;;;;3.93;2.70;;;;;;;;;;5026179;28;20228;-60
2022/10/05 02:18:39;;;;;;;2.80;2.60;;;;;;;;;;5026678;28;20705;-60
2022/10/05 02:21:08;;;;;;;2.50;2.10;;;;;;;;;;5026471;28;20211;-60
2022/10/05 02:23:37;;;;;;;2.63;2.43;;;;;;;;;;5026886;28;20852;-60
2022/10/05 02:26:05;;;;;;;7.60;2.50;;;;;;;;;;5026275;28;20235;-59
2022/10/05 02:28:34;;;;;;;2.70;2.47;;;;;;;;;;5026732;28;20208;-60
2022/10/05 02:31:05;;;;;;;3.77;2.60;;;;;;;;;;5026617;28;20208;-60
2022/10/05 02:33:33;;;;;;;2.60;2.40;;;;;;;;;;5026904;28;20592;-60
2022/10/05 02:36:01;;;;;;;5.97;2.60;;;;;;;;;;5028352;28;20223;-60
2022/10/05 02:38:33;;;;;;;2.43;2.33;;;;;;;;;;5025423;28;20215;-60
2022/10/05 02:41:06;;;;;;;8.70;2.53;;;;;;;;;;5026294;28;20223;-60
2022/10/05 02:43:39;;;;;;;2.90;2.70;;;;;;;;;;5027228;28;20667;-60
2022/10/05 02:46:10;;;;;;;3.43;3.13;;;;;;;;;;5026529;28;20227;-60
2022/10/05 02:48:43;;;;;;;3.53;2.40;;;;;;;;;;5027026;28;20200;-60
2022/10/05 02:51:15;;;;;;;2.87;2.60;;;;;;;;;;5026113;28;20226;-60
2022/10/05 02:53:45;;;;;;;3.37;2.47;;;;;;;;;;5026744;28;20208;-60
2022/10/05 02:56:20;;;;;;;2.83;2.57;;;;;;;;;;5027179;28;20224;-60
2022/10/05 02:58:54;;;;;;;2.60;2.40;;;;;;;;;;5026218;28;20206;-60
2022/10/05 03:01:25;;;;;;;3.00;2.80;;;;;;;;;;5026821;28;20209;-60
2022/10/05 03:03:56;;;;;;;3.03;2.73;;;;;;;;;;5026926;28;20224;-60
2022/10/05 03:06:26;;;;;;;3.80;2.87;;;;;;;;;;5023057;28;20219;-60
2022/10/05 03:08:57;;;;;;;2.27;2.17;;;;;;;;;;5026640;28;20200;-60
2022/10/05 03:11:26;;;;;;;7.60;3.47;;;;;;;;;;5027938;28;20200;-60
2022/10/05 03:13:57;;;;;;;5.73;3.03;;;;;;;;;;5029710;28;20291;-60
2022/10/05 03:16:35;;;;;;;3.27;2.97;;;;;;;;;;5030835;28;20227;-60
2022/10/05 03:19:09;;;;;;;2.70;2.43;;;;;;;;;;5031442;28;20200;-59
2022/10/05 03:21:47;;;;;;;3.13;2.73;;;;;;;;;;5029449;28;20204;-60
2022/10/05 03:24:21;;;;;;;7.90;3.30;;;;;;;;;;5028561;28;20204;-59
2022/10/05 03:26:54;;;;;;;3.30;2.90;;;;;;;;;;5027061;28;20245;-59
2022/10/05 03:29:26;;;;;;;9.13;3.30;;;;;;;;;;5031200;28;20322;-59
2022/10/05 03:32:00;;;;;;;3.67;3.20;;;;;;;;;;5029154;28;20200;-59
2022/10/05 03:34:30;;;;;;;5.47;3.40;;;;;;;;;;5030804;28;20552;-59
2022/10/05 03:37:03;;;;;;;6.13;3.73;;;;;;;;;;5030580;28;20232;-59
2022/10/05 03:39:35;;;;;;;6.80;3.60;;;;;;;;;;5030340;28;20238;-59
2022/10/05 03:42:05;;;;;;;10.83;3.53;;;;;;;;;;5029441;28;20663;-60
2022/10/05 03:44:36;;;;;;;4.50;4.00;;;;;;;;;;5028850;28;20212;-59
2022/10/05 03:47:09;;;;;;;5.17;3.87;;;;;;;;;;5029378;28;20205;-59
2022/10/05 03:49:45;;;;;;;4.60;3.80;;;;;;;;;;5030009;28;20212;-60
2022/10/05 03:52:15;;;;;;;4.50;3.80;;;;;;;;;;5028430;28;20208;-59
2022/10/05 03:54:45;;;;;;;3.87;3.40;;;;;;;;;;5029525;28;20212;-59
2022/10/05 03:57:14;;;;;;;3.77;3.20;;;;;;;;;;5029609;28;20216;-60
2022/10/05 03:59:43;;;;;;;3.77;3.40;;;;;;;;;;5029666;28;20205;-60
2022/10/05 04:02:16;;;;;;;3.47;2.97;;;;;;;;;;5029266;28;20204;-60
2022/10/05 04:04:46;;;;;;;4.40;2.93;;;;;;;;;;5029083;28;20239;-59
2022/10/05 04:07:21;;;;;;;4.33;3.17;;;;;;;;;;5029206;28;20200;-59
2022/10/05 04:09:50;;;;;;;2.97;2.73;;;;;;;;;;5029090;28;20207;-59
2022/10/05 04:12:28;;;;;;;2.90;2.63;;;;;;;;;;5029169;28;20212;-60
2022/10/05 04:14:57;;;;;;;3.67;2.93;;;;;;;;;;5028513;28;20200;-59
2022/10/05 04:17:31;;;;;;;2.70;2.50;;;;;;;;;;5029220;28;20196;-59
2022/10/05 04:20:00;;;;;;;3.43;3.10;;;;;;;;;;5028448;28;20200;-59
2022/10/05 04:22:30;;;;;;;3.90;2.47;;;;;;;;;;5029025;28;20212;-60
2022/10/05 04:25:01;;;;;;;3.00;2.77;;;;;;;;;;5028554;28;20203;-60
2022/10/05 04:27:31;;;;;;;3.07;2.77;;;;;;;;;;5028585;28;20239;-59
2022/10/05 04:30:01;;;;;;;2.53;2.33;;;;;;;;;;5029139;28;20255;-60
2022/10/05 04:32:37;;;;;;;3.30;2.70;;;;;;;;;;5028956;28;20224;-59
2022/10/05 04:35:12;;;;;;;3.10;2.90;;;;;;;;;;5029169;28;20205;-59
2022/10/05 04:37:45;;;;;;;3.20;2.97;;;;;;;;;;5029019;28;20200;-59
2022/10/05 04:40:18;;;;;;;2.70;2.53;;;;;;;;;;5028446;28;20245;-59
2022/10/05 04:42:48;;;;;;;2.27;2.17;;;;;;;;;;5028905;28;20204;-59
2022/10/05 04:45:21;;;;;;;2.23;2.13;;;;;;;;;;5028108;28;20208;-59
2022/10/05 04:48:03;;;;;;;9.77;2.83;;;;;;;;;;5028703;28;20212;-61
2022/10/05 04:50:42;;;;;;;2.00;1.90;;;;;;;;;;5029162;28;20209;-60
2022/10/05 04:53:13;;;;;;;3.03;2.63;;;;;;;;;;5028314;28;20570;-61
2022/10/05 04:55:43;;;;;;;2.70;2.57;;;;;;;;;;5026934;28;20638;-60
2022/10/05 04:58:15;;;;;;;3.10;2.87;;;;;;;;;;5028723;28;20208;-60
2022/10/05 05:00:49;;;;;;;3.60;3.10;;;;;;;;;;5027959;28;20232;-60
2022/10/05 05:03:32;;;;;;;3.27;3.07;;;;;;;;;;5028701;28;20322;-60
2022/10/05 05:06:05;;;;;;;2.77;2.57;;;;;;;;;;5025537;28;20639;-60
2022/10/05 05:08:38;;;;;;;3.30;3.00;;;;;;;;;;5028408;28;20208;-61
2022/10/05 05:11:13;;;;;;;3.80;3.40;;;;;;;;;;5028085;28;20362;-60
2022/10/05 05:13:58;;;;;;;4.47;3.43;;;;;;;;;;5027856;28;20207;-60
2022/10/05 05:16:31;;;;;;;4.03;3.57;;;;;;;;;;5026450;28;20249;-60
2022/10/05 05:19:09;;;;;;;3.43;3.13;;;;;;;;;;5028036;28;20632;-60
2022/10/05 05:21:41;;;;;;;6.17;3.67;;;;;;;;;;5025532;28;20207;-60
2022/10/05 05:24:13;;;;;;;3.87;3.47;;;;;;;;;;5026320;28;20881;-60
2022/10/05 05:26:46;;;;;;;3.27;3.03;;;;;;;;;;5026977;28;20722;-60
2022/10/05 05:29:18;;;;;;;3.33;3.13;;;;;;;;;;5029201;28;20212;-60
2022/10/05 05:31:47;;;;;;;3.70;3.40;;;;;;;;;;5028388;28;20212;-60
2022/10/05 05:34:27;;;;;;;3.67;3.37;;;;;;;;;;5028148;28;20220;-60
2022/10/05 05:36:57;;;;;;;3.00;2.80;;;;;;;;;;5029189;28;20254;-60
2022/10/05 05:39:26;;;;;;;3.23;3.00;;;;;;;;;;5029486;28;20204;-60
2022/10/05 05:41:59;;;;;;;3.27;2.87;;;;;;;;;;5028631;28;20583;-60
2022/10/05 05:44:28;;;;;;;5.90;2.80;;;;;;;;;;5029720;28;20289;-60
2022/10/05 05:46:59;;;;;;;7.73;3.10;;;;;;;;;;5028954;28;20650;-60
2022/10/05 05:49:32;;;;;;;7.27;3.00;;;;;;;;;;5029153;28;20702;-60
2022/10/05 05:52:01;;;;;;;4.87;2.67;;;;;;;;;;5028152;28;20208;-60
2022/10/05 05:54:31;;;;;;;2.83;2.60;;;;;;;;;;5029395;28;20209;-61
2022/10/05 05:57:03;;;;;;;3.50;2.70;;;;;;;;;;5027398;28;20224;-60
2022/10/05 05:59:33;;;;;;;3.30;3.00;;;;;;;;;;5028915;28;20243;-60
2022/10/05 06:02:04;;;;;;;4.37;3.43;;;;;;;;;;5028829;28;20200;-59
2022/10/05 06:04:34;;;;;;;4.83;3.60;;;;;;;;;;5028967;28;20692;-60
2022/10/05 06:07:02;;;;;;;9.03;3.90;;;;;;;;;;5028437;28;20200;-61
2022/10/05 06:09:33;;;;;;;6.97;4.47;;;;;;;;;;5027233;28;20227;-60
2022/10/05 06:12:03;;;;;;;5.10;4.10;;;;;;;;;;5021259;28;20200;-60
2022/10/05 06:14:34;;;;;;;5.50;3.97;;;;;;;;;;5027559;28;20203;-60
2022/10/05 06:17:02;;;;;;;5.10;3.93;;;;;;;;;;5028429;28;20224;-60
2022/10/05 06:19:31;;;;;;;4.23;3.73;;;;;;;;;;5028449;28;20196;-60
2022/10/05 06:22:03;;;;;;;4.27;3.87;;;;;;;;;;5028460;28;20671;-61
2022/10/05 06:24:32;;;;;;;7.20;4.53;;;;;;;;;;5028474;28;20208;-61
2022/10/05 06:27:09;;;;;;;6.83;3.80;;;;;;;;;;5027975;28;20235;-60
2022/10/05 06:29:42;;;;;;;4.57;3.90;;;;;;;;;;5028146;28;20211;-58
2022/10/05 06:32:14;;;;;;;4.30;3.20;;;;;;;;;;5027753;28;20204;-58
2022/10/05 06:34:51;;;;;;;7.33;4.23;;;;;;;;;;5028515;28;20212;-59
2022/10/05 06:37:23;;;;;;;7.23;4.67;;;;;;;;;;5027803;28;20255;-58
2022/10/05 06:40:06;;;;;;;6.50;4.50;;;;;;;;;;5026306;28;20209;-59
2022/10/05 06:42:42;;;;;;;7.70;4.40;;;;;;;;;;5027241;28;20643;-59
2022/10/05 06:45:15;;;;;;;8.33;4.63;;;;;;;;;;5007258;28;20227;-59
2022/10/05 06:47:46;;;;;;;7.73;4.97;;;;;;;;;;5022094;28;20244;-59
2022/10/05 06:50:16;;;;;;;9.47;5.07;;;;;;;;;;5027953;28;20212;-59
2022/10/05 06:52:52;;;;;;;7.30;4.70;;;;;;;;;;5024797;28;20212;-59
2022/10/05 06:55:21;;;;;;;10.43;4.77;;;;;;;;;;5027855;28;20219;-59
2022/10/05 06:57:54;;;;;;;7.00;5.17;;;;;;;;;;5027373;28;20236;-59
2022/10/05 07:00:23;;;;;;;9.43;4.73;;;;;;;;;;5027813;28;20273;-60
2022/10/05 07:02:54;;;;;;;7.10;4.40;;;;;;;;;;5026755;28;20232;-60
2022/10/05 07:05:38;;;;;;;7.17;5.23;;;;;;;;;;5028039;28;20365;-61
2022/10/05 07:08:09;;;;;;;8.47;5.03;;;;;;;;;;5025701;28;20220;-60
2022/10/05 07:10:42;;;;;;;8.70;4.97;;;;;;;;;;5028013;28;20204;-61
2022/10/05 07:13:25;;;;;;;10.13;5.17;;;;;;;;;;5028148;28;20215;-61
2022/10/05 07:15:57;;;;;;;9.67;5.13;;;;;;;;;;5027736;28;20224;-61
2022/10/05 07:18:35;;;;;;;6.67;4.80;;;;;;;;;;5028100;28;20624;-60
2022/10/05 07:21:06;;;;;;;7.47;5.20;;;;;;;;;;5028036;28;20212;-60
2022/10/05 07:23:43;;;;;;;7.23;5.60;;;;;;;;;;5028002;28;20215;-60
2022/10/05 07:26:13;;;;;;;7.00;4.73;;;;;;;;;;5026971;28;20232;-60
2022/10/05 07:28:45;;;;;;;8.57;5.13;;;;;;;;;;5024613;28;20212;-59
2022/10/05 07:31:14;;;;;;;6.67;5.00;;;;;;;;;;5019592;28;20213;-61
2022/10/05 07:33:45;;;;;;;5.70;5.17;;;;;;;;;;5016238;28;20201;-60
2022/10/05 07:39:03;;;;;;;5.20;4.33;;;;;;;;;;5019122;28;20219;-60
2022/10/05 07:41:34;;;;;;;5.83;5.13;;;;;;;;;;5018502;28;20209;-60
2022/10/05 07:44:07;;;;;;;5.33;4.43;;;;;;;;;;5021670;28;20564;-61
2022/10/05 07:46:42;;;;;;;7.20;5.33;;;;;;;;;;5010937;28;20206;-61
2022/10/05 07:49:14;;;;;;;8.50;5.60;;;;;;;;;;5007954;28;20216;-60
2022/10/05 07:51:44;;;;;;;6.23;5.10;;;;;;;;;;5025903;28;20204;-61
2022/10/05 07:54:17;;;;;;;7.03;4.93;;;;;;;;;;5027258;28;20201;-60
2022/10/05 07:56:45;;;;;;;9.30;6.07;;;;;;;;;;5008571;28;20229;-60
2022/10/05 07:59:16;;;;;;;8.70;6.33;;;;;;;;;;5014255;28;20213;-61
2022/10/05 08:01:45;;;;;;;7.73;5.43;;;;;;;;;;5011605;28;20787;-59
2022/10/05 08:04:15;;;;;;;10.07;6.17;;;;;;;;;;5024771;28;20698;-62
2022/10/05 08:06:48;;;;;;;7.47;5.37;;;;;;;;;;5030983;28;20228;-61
2022/10/05 08:09:24;;;;;;;8.30;6.53;;;;;;;;;;5030318;28;20208;-61
2022/10/05 08:11:56;;;;;;;10.27;5.63;;;;;;;;;;5031041;28;20204;-61
2022/10/05 08:17:19;;;;;;;6.50;4.53;;;;;;;;;;5029359;28;20232;-61
2022/10/05 08:19:49;;;;;;;7.03;5.17;;;;;;;;;;5013561;28;20213;-62
2022/10/05 08:22:21;;;;;;;8.93;5.60;;;;;;;;;;5028610;28;20212;-61
2022/10/05 08:24:51;;;;;;;8.07;5.73;;;;;;;;;;5018826;28;20223;-61
2022/10/05 08:27:24;;;;;;;7.57;5.47;;;;;;;;;;5020444;28;20247;-62
2022/10/05 08:29:55;;;;;;;7.50;5.93;;;;;;;;;;5029148;28;20236;-61
2022/10/05 08:32:24;;;;;;;10.10;6.70;;;;;;;;;;5024115;28;20212;-61
2022/10/05 08:34:53;;;;;;;10.00;6.20;;;;;;;;;;5026387;28;20217;-62
2022/10/05 08:37:21;;;;;;;8.33;6.17;;;;;;;;;;5025784;28;20232;-60
2022/10/05 08:39:52;;;;;;;7.73;5.87;;;;;;;;;;5033419;28;20274;-61
2022/10/05 08:42:46;;;;;;;8.47;6.77;;;;;;;;;;5034306;28;20222;-61
2022/10/05 08:45:28;;;;;;;8.30;6.43;;;;;;;;;;5001872;28;20211;-61
2022/10/05 08:48:05;;;;;;;7.10;5.67;;;;;;;;;;5024816;28;20558;-61
2022/10/05 08:50:44;;;;;;;10.70;6.87;;;;;;;;;;5027875;28;20220;-61
2022/10/05 08:53:29;;;;;;;12.37;7.17;;;;;;;;;;5044571;28;20230;-61
2022/10/05 08:56:09;;;;;;;12.57;6.60;;;;;;;;;;5040900;28;20216;-61
2022/10/05 08:59:02;;;;;;;6.93;5.90;;;;;;;;;;5047027;28;20227;-61
2022/10/05 09:01:35;;;;;;;10.23;7.10;;;;;;;;;;5016665;28;20283;-61
2022/10/05 09:04:19;;;;;;;9.77;6.63;;;;;;;;;;5016011;28;20228;-61
2022/10/05 09:06:54;;;;;;;8.17;6.73;;;;;;;;;;5026869;28;20208;-61
2022/10/05 09:09:31;;;;;;;9.83;7.37;;;;;;;;;;5012643;28;20200;-61
2022/10/05 09:12:06;;;;;;;10.67;7.53;;;;;;;;;;5028901;28;20204;-61
2022/10/05 09:14:39;;;;;;;7.90;7.10;;;;;;;;;;5030913;28;20273;-60
2022/10/05 09:17:16;;;;;;;9.77;7.25;;;;;;;;;;5031788;28;20221;-60
2022/10/05 09:20:02;;;;;;;10.35;7.65;;;;;;;;;;5029323;28;20212;-61
2022/10/05 09:22:37;;;;;;;8.32;6.45;;;;;;;;;;5028803;28;20215;-61
2022/10/05 09:25:14;;;;;;;7.65;6.05;;;;;;;;;;5033082;28;20223;-59
2022/10/05 09:27:44;;;;;;;6.93;5.25;;;;;;;;;;5027242;28;20262;-62
2022/10/05 09:30:26;;;;;;;8.40;6.30;;;;;;;;;;5028606;28;20580;-61
2022/10/05 09:33:09;;;;;;;8.88;6.20;;;;;;;;;;5028708;28;20282;-60
2022/10/05 09:35:52;;;;;;;8.02;6.28;;;;;;;;;;4995156;28;20800;-61
2022/10/05 09:38:23;;;;;;;5.65;5.10;;;;;;;;;;5027308;28;20251;-61
2022/10/05 09:41:05;;;;;;;6.28;5.68;;;;;;;;;;5028884;28;20227;-61
2022/10/05 09:43:50;;;;;;;5.38;4.97;;;;;;;;;;5028863;28;20212;-61
2022/10/05 09:46:33;;;;;;;5.05;4.65;;;;;;;;;;5027040;28;20219;-60
2022/10/05 09:49:12;;;;;;;4.35;4.05;;;;;;;;;;5043946;28;20215;-61
2022/10/05 09:52:06;;;;;;;4.15;3.80;;;;;;;;;;5049457;28;20215;-61
2022/10/05 09:54:48;;;;;;;4.53;4.13;;;;;;;;;;5043249;28;20945;-61
2022/10/05 09:57:33;;;;;;;4.57;4.18;;;;;;;;;;5043331;28;20223;-60
2022/10/05 10:00:08;;;;;;;4.80;4.35;;;;;;;;;;5025817;28;20211;-60
2022/10/05 10:02:54;;;;;;;4.50;4.15;;;;;;;;;;5040235;28;20686;-60
2022/10/05 10:05:38;;;;;;;4.80;4.40;;;;;;;;;;5045154;28;20211;-60
2022/10/05 10:08:09;;;;;;;4.45;4.15;;;;;;;;;;5027657;28;20231;-60
2022/10/05 10:10:57;;;;;;;6.22;4.03;;;;;;;;;;5028212;28;20287;-60
2022/10/05 10:13:30;;;;;;;4.82;4.43;;;;;;;;;;5028533;28;20200;-59
2022/10/05 10:16:34;;;;;;;5.28;4.78;;;;;;;;;;5019823;28;20208;-59
2022/10/05 10:19:12;;;;;;;5.03;4.57;;;;;;;;;;4996076;28;20242;-61
2022/10/05 10:21:54;;;;;;;4.43;4.03;;;;;;;;;;5027462;28;20238;-61
2022/10/05 10:24:32;;;;;;;4.60;4.20;;;;;;;;;;5026662;28;20354;-62
2022/10/05 10:27:08;;;;;;;5.10;4.35;;;;;;;;;;5026543;28;20655;-62
2022/10/05 10:29:40;;;;;;;6.60;3.72;;;;;;;;;;5017786;28;20201;-61
2022/10/05 10:32:22;;;;;;;4.40;4.00;;;;;;;;;;5025715;28;20220;-63
2022/10/05 10:35:10;;;;;;;3.42;3.22;;;;;;;;;;5014175;28;20211;-61
2022/10/05 10:37:52;;;;;;;3.88;3.42;;;;;;;;;;5016950;28;20241;-61
2022/10/05 10:40:32;;;;;;;3.03;2.85;;;;;;;;;;5026518;28;20223;-61
2022/10/05 10:43:10;;;;;;;2.80;2.70;;;;;;;;;;5026922;28;20214;-61
2022/10/05 10:45:45;;;;;;;3.20;3.10;;;;;;;;;;5027901;28;20216;-61
2022/10/05 10:48:32;;;;;;;3.15;2.95;;;;;;;;;;5024453;28;20203;-61
2022/10/05 10:51:14;;;;;;;2.28;2.25;;;;;;;;;;5017836;28;20200;-62
2022/10/05 10:53:50;;;;;;;3.00;2.88;;;;;;;;;;5021996;28;20663;-61
2022/10/05 10:56:30;;;;;;;3.38;2.50;;;;;;;;;;5019220;28;20227;-60
2022/10/05 10:59:24;;;;;;;2.80;2.70;;;;;;;;;;5023126;28;20256;-60
2022/10/05 11:02:04;;;;;;;3.10;2.90;;;;;;;;;;5020507;28;20205;-60
2022/10/05 11:04:56;;;;;;;2.75;2.55;;;;;;;;;;5019119;28;20225;-60
2022/10/05 11:07:36;;;;;;;2.60;2.40;;;;;;;;;;5023945;28;20207;-61
2022/10/05 11:10:22;;;;;;;2.85;2.70;;;;;;;;;;5020422;28;20200;-60
2022/10/05 11:13:07;;;;;;;2.90;2.70;;;;;;;;;;5022423;28;20598;-61
2022/10/05 11:15:42;;;;;;;3.20;2.95;;;;;;;;;;5027534;28;20227;-62
2022/10/05 11:18:16;;;;;;;2.50;2.40;;;;;;;;;;5027601;28;20246;-61
2022/10/05 11:21:01;;;;;;;2.72;2.63;;;;;;;;;;5027053;28;20217;-62
2022/10/05 11:23:46;;;;;;;2.72;2.53;;;;;;;;;;5028557;28;20685;-61
2022/10/05 11:26:23;;;;;;;2.63;2.47;;;;;;;;;;5001613;28;20740;-62
2022/10/05 11:28:57;;;;;;;2.75;2.53;;;;;;;;;;5023383;28;20220;-62
2022/10/05 11:31:39;;;;;;;2.17;2.05;;;;;;;;;;5022723;28;20204;-63
2022/10/05 11:34:20;;;;;;;1.77;1.77;;;;;;;;;;5027471;28;20204;-63
2022/10/05 11:36:58;;;;;;;1.90;1.83;;;;;;;;;;5028377;28;20211;-63
2022/10/05 11:39:32;;;;;;;2.47;1.90;;;;;;;;;;5031570;28;20228;-63
2022/10/05 11:42:14;;;;;;;1.88;1.77;;;;;;;;;;5032723;28;20208;-63
2022/10/05 11:45:00;;;;;;;1.80;1.70;;;;;;;;;;5018363;28;20207;-61
2022/10/05 11:47:28;;;;;;;3.25;2.15;;;;;;;;;;5027985;28;20216;-61
2022/10/05 11:50:04;;;;;;;1.88;1.80;;;;;;;;;;5029071;28;20209;-61
2022/10/05 11:52:36;;;;;;;1.88;1.83;;;;;;;;;;5026242;28;20204;-61
2022/10/05 11:55:06;;;;;;;3.13;1.70;;;;;;;;;;5029210;28;20208;-61
2022/10/05 11:57:36;;;;;;;2.10;2.08;;;;;;;;;;5030424;28;20239;-60
2022/10/05 12:00:11;;;;;;;1.80;1.70;;;;;;;;;;5029875;28;20259;-61
2022/10/05 12:02:52;;;;;;;1.92;1.83;;;;;;;;;;5030675;28;20587;-61
2022/10/05 12:05:21;;;;;;;2.13;2.03;;;;;;;;;;5030442;28;20689;-63
2022/10/05 12:07:54;;;;;;;1.98;1.95;;;;;;;;;;5030200;28;20291;-61
2022/10/05 12:10:29;;;;;;;1.48;1.48;;;;;;;;;;5030227;28;20216;-61
2022/10/05 12:13:08;;;;;;;1.52;1.50;;;;;;;;;;5030079;28;20713;-60
2022/10/05 12:15:42;;;;;;;1.55;1.50;;;;;;;;;;5023135;28;20274;-61
2022/10/05 12:18:12;;;;;;;2.28;1.73;;;;;;;;;;5030105;28;20224;-61
2022/10/05 12:20:40;;;;;;;1.30;1.30;;;;;;;;;;5029374;28;20231;-61
2022/10/05 12:23:13;;;;;;;1.38;1.38;;;;;;;;;;5031692;28;20217;-61
2022/10/05 12:25:43;;;;;;;1.67;1.30;;;;;;;;;;5040504;28;20576;-61
2022/10/05 12:28:12;;;;;;;1.30;1.25;;;;;;;;;;5044032;28;20627;-61
2022/10/05 12:30:56;;;;;;;1.00;1.00;;;;;;;;;;5041938;28;20227;-61
2022/10/05 12:33:26;;;;;;;1.23;1.23;;;;;;;;;;5047110;28;20203;-60
2022/10/05 12:35:55;;;;;;;1.42;1.33;;;;;;;;;;5029954;28;20235;-61
2022/10/05 12:38:27;;;;;;;1.05;1.05;;;;;;;;;;5043914;28;20259;-61
2022/10/05 12:40:59;;;;;;;1.58;1.48;;;;;;;;;;5031317;28;20311;-61
2022/10/05 12:43:32;;;;;;;3.28;1.50;;;;;;;;;;5028419;28;20212;-61
2022/10/05 12:46:05;;;;;;;1.15;1.15;;;;;;;;;;5029740;28;20245;-61
2022/10/05 12:48:42;;;;;;;1.30;1.02;;;;;;;;;;5044356;28;20203;-61
2022/10/05 12:51:12;;;;;;;0.82;0.73;;;;;;;;;;5040541;28;20660;-61
2022/10/05 12:53:47;;;;;;;1.20;1.20;;;;;;;;;;5046182;28;20201;-60
2022/10/05 12:56:20;;;;;;;5.25;1.40;;;;;;;;;;5036439;28;20215;-61
2022/10/05 12:58:52;;;;;;;1.13;1.13;;;;;;;;;;5029056;28;20282;-61
2022/10/05 13:01:25;;;;;;;1.20;1.17;;;;;;;;;;5030381;28;20878;-61
2022/10/05 13:03:55;;;;;;;1.10;1.10;;;;;;;;;;5044667;28;20258;-61
2022/10/05 13:06:24;;;;;;;1.20;1.20;;;;;;;;;;5029655;28;20212;-61
2022/10/05 13:08:55;;;;;;;1.40;1.30;;;;;;;;;;5029488;28;20288;-61
2022/10/05 13:11:28;;;;;;;1.20;1.20;;;;;;;;;;5029437;28;20219;-61
2022/10/05 13:14:04;;;;;;;1.40;1.35;;;;;;;;;;5033828;28;20204;-61
2022/10/05 13:16:37;;;;;;;2.22;0.95;;;;;;;;;;5031834;28;20204;-61
2022/10/05 13:19:12;;;;;;;1.10;1.10;;;;;;;;;;5032450;28;20307;-61
2022/10/05 13:21:53;;;;;;;4.00;1.27;;;;;;;;;;5032680;28;20211;-61
2022/10/05 13:24:22;;;;;;;1.30;1.30;;;;;;;;;;5049276;28;20215;-60
2022/10/05 13:26:52;;;;;;;1.40;1.35;;;;;;;;;;5033061;28;20326;-61
2022/10/05 13:29:23;;;;;;;1.20;1.20;;;;;;;;;;5029365;28;20576;-60
2022/10/05 13:31:54;;;;;;;1.48;1.48;;;;;;;;;;5028960;28;20216;-61
2022/10/05 13:34:28;;;;;;;1.42;1.42;;;;;;;;;;5029161;28;20204;-61
2022/10/05 13:37:00;;;;;;;2.80;1.40;;;;;;;;;;5042259;28;20231;-61
2022/10/05 13:39:35;;;;;;;1.20;1.17;;;;;;;;;;5048809;28;20259;-61
2022/10/05 13:42:04;;;;;;;1.40;1.15;;;;;;;;;;5028886;28;20439;-61
2022/10/05 13:44:34;;;;;;;1.15;1.15;;;;;;;;;;5028915;28;20212;-61
2022/10/05 13:47:06;;;;;;;1.17;1.17;;;;;;;;;;5041826;28;20223;-61
2022/10/05 13:49:37;;;;;;;0.82;0.82;;;;;;;;;;5048723;28;20334;-61
2022/10/05 13:52:11;;;;;;;1.20;1.10;;;;;;;;;;5031140;28;20690;-61
2022/10/05 13:54:43;;;;;;;1.40;1.27;;;;;;;;;;5040442;28;20211;-61
2022/10/05 13:57:15;;;;;;;1.20;1.20;;;;;;;;;;5044083;28;20674;-61
2022/10/05 13:59:49;;;;;;;1.17;1.17;;;;;;;;;;5040383;28;20232;-61
2022/10/05 14:02:20;;;;;;;1.25;1.25;;;;;;;;;;5033628;28;20212;-61
2022/10/05 14:04:49;;;;;;;1.23;1.20;;;;;;;;;;5040418;28;20694;-61
2022/10/05 14:07:24;;;;;;;1.17;1.00;;;;;;;;;;5027941;28;20208;-64
2022/10/05 14:09:52;;;;;;;0.90;0.90;;;;;;;;;;5028268;28;20200;-61
2022/10/05 14:12:23;;;;;;;1.30;1.30;;;;;;;;;;5028113;28;20211;-61
2022/10/05 14:14:50;;;;;;;1.40;1.30;;;;;;;;;;5026462;28;20212;-62
2022/10/05 14:17:31;;;;;;;1.15;1.15;;;;;;;;;;5028573;28;20219;-61
2022/10/05 14:19:59;;;;;;;1.08;1.08;;;;;;;;;;5027609;28;20610;-62
2022/10/05 14:22:28;;;;;;;1.52;1.42;;;;;;;;;;5026534;28;20228;-62
2022/10/05 14:24:56;;;;;;;1.20;1.20;;;;;;;;;;5027637;28;20701;-62
2022/10/05 14:27:24;;;;;;;1.15;1.15;;;;;;;;;;5027863;28;20826;-62
2022/10/05 14:29:59;;;;;;;0.90;0.90;;;;;;;;;;5027655;28;20208;-62
2022/10/05 14:32:30;;;;;;;1.17;1.17;;;;;;;;;;5027494;28;20240;-62
2022/10/05 14:35:03;;;;;;;1.30;1.30;;;;;;;;;;5027541;28;20263;-61
2022/10/05 14:37:33;;;;;;;1.58;1.40;;;;;;;;;;5027690;28;20267;-61
2022/10/05 14:40:02;;;;;;;1.33;1.20;;;;;;;;;;5027720;28;20232;-61
2022/10/05 14:42:31;;;;;;;1.17;1.17;;;;;;;;;;5027949;28;20328;-61
2022/10/05 14:44:59;;;;;;;1.10;1.10;;;;;;;;;;5027180;28;20212;-62
2022/10/05 14:47:30;;;;;;;1.45;1.45;;;;;;;;;;5025933;28;20213;-66
2022/10/05 14:50:16;;;;;;;1.25;1.25;;;;;;;;;;5027495;28;20342;-64
2022/10/05 14:52:47;;;;;;;1.13;1.13;;;;;;;;;;5021961;28;20215;-62
2022/10/05 14:55:20;;;;;;;1.40;1.40;;;;;;;;;;5025111;28;20234;-62
2022/10/05 14:57:55;;;;;;;1.30;1.20;;;;;;;;;;5024393;28;20204;-63
2022/10/05 15:00:23;;;;;;;1.17;1.17;;;;;;;;;;5027588;28;20652;-62
2022/10/05 15:03:07;;;;;;;3.80;1.30;;;;;;;;;;5029407;28;20251;-62
2022/10/05 15:05:40;;;;;;;1.13;1.13;;;;;;;;;;5028654;28;20210;-62
2022/10/05 15:08:14;;;;;;;1.38;1.33;;;;;;;;;;5033601;28;20301;-62
2022/10/05 15:10:43;;;;;;;1.27;1.17;;;;;;;;;;5026699;28;20208;-63
2022/10/05 15:13:13;;;;;;;1.20;1.20;;;;;;;;;;5027121;28;20719;-62
2022/10/05 15:15:45;;;;;;;1.17;1.17;;;;;;;;;;5027076;28;20266;-62
2022/10/05 15:18:15;;;;;;;2.17;1.50;;;;;;;;;;5027079;28;20211;-63
2022/10/05 15:20:47;;;;;;;1.17;1.17;;;;;;;;;;5026858;28;20830;-62
2022/10/05 15:23:23;;;;;;;1.63;1.25;;;;;;;;;;5027105;28;20219;-62
2022/10/05 15:25:52;;;;;;;1.10;1.10;;;;;;;;;;5027161;28;20232;-62